METAR stanice u blizini

 

LYBE - Beograd / Surčin, Srbija
Ažurirano: 25/04/2024 10:30
Mostly Cloudy
Mostly Cloudy
 Pravac vetra SSI
Vetar: SSI 11 km/h
Temperatura: 10°C
Osećaj hladnoće: 8°C
Tačka rose: 4°C
Vlažnost: 67%
Pritisak: 1009 hPa
Oblaci: Mostly Cloudy
Vidljivost: 10 km
Cloud details: Mostly Cloudy 914 m
2024/04/25 08:30 LYBE 250830Z 03006KT 330V090 9999 BKN030 10/04 Q1009 NOSIG
LYBT - Beograd / Batajnica, Srbija
Ažurirano: 25/04/2024 10:30
Partly Cloudy
Partly Cloudy
 Pravac vetra S
Vetar: S 9 km/h
Temperatura: 11°C
Tačka rose: 6°C
Vlažnost: 72%
Pritisak: 1009 hPa
Oblaci: Partly Cloudy
Vidljivost: 10 km
Cloud details: Partly Cloudy 1006 m
2024/04/25 08:30 LYBT 250830Z 01005KT 320V080 9999 SCT033 11/06 Q1009 NOSIG
LYVR - Vršac, Srbija
Ažurirano: 25/04/2024 10:30
Partly Cloudy
Partly Cloudy
 Pravac vetra SSI
Vetar: SSI 11 km/h
Temperatura: 9°C
Osećaj hladnoće: 7°C
Tačka rose: 6°C
Vlažnost: 82%
Pritisak: 1009 hPa
Oblaci: Partly Cloudy
Vidljivost: 10 km
Cloud details: Partly Cloudy 610 m
Partly Cloudy 792 m
2024/04/25 08:30 LYVR 250830Z 02006KT 340V060 9999 SCT020 SCT026 09/06 Q1009 NOSIG
 
LYKV - Lađevci, Srbija
Ažurirano: 25/04/2024 10:30
Mostly Cloudy
Mostly Cloudy
 Pravac vetra S
Vetar: S 6 km/h
Temperatura: 10°C
Tačka rose: 6°C
Vlažnost: 76%
Pritisak: 1008 hPa
Oblaci: Mostly Cloudy
Vidljivost: 10 km
Cloud details: Partly Cloudy 457 m
Mostly Cloudy 823 m
2024/04/25 08:30 LYKV 250830Z 01003KT 290V070 9999 SCT015 BKN027 10/06 Q1008 NOSIG
LYNI - Niš, Srbija
Ažurirano: 25/04/2024 10:30
Slaba kiša, Pretežno oblačno
Slaba kiša, Pretežno oblačno
 Pravac vetra SSZ
Vetar: SSZ 19 km/h
Temperatura: 9°C
Osećaj hladnoće: 6°C
Tačka rose: 8°C
Vlažnost: 94%
Pritisak: 1009 hPa
Pregled: Light Rain
Oblaci: Mostly Cloudy
Vidljivost: 10 km
Cloud details: Few Clouds 396 m
Mostly Cloudy 1433 m
2024/04/25 08:30 LYNI 250830Z 33010KT 300V360 9999 -RA FEW013 BKN047 09/08 Q1009 NOSIG
BKPR - Priština, Srbija
Ažurirano: 25/04/2024 10:30
Slaba kiša, Pretežno oblačno
Slaba kiša, Pretežno oblačno
 Pravac vetra S
Vetar: S 9 km/h
Temperatura: 8°C
Osećaj hladnoće: 6°C
Tačka rose: 6°C
Vlažnost: 87%
Pritisak: 1007 hPa
Pregled: Light Rain
Oblaci: Mostly Cloudy
Vidljivost: 8 km
Cloud details: Partly Cloudy 366 m
Mostly Cloudy 610 m
2024/04/25 08:30 BKPR 250830Z 35005KT 8000 -RA SCT012 BKN020 08/06 Q1007 NOSIG
 
LHPP - Pecs / Pogany, Hungary
Ažurirano: 25/04/2024 10:15
Oblačno
Oblačno
 Pravac vetra SI
Vetar: SI 11 km/h
Temperatura: 10°C
Osećaj hladnoće: 8°C
Tačka rose: 3°C
Vlažnost: 62%
Pritisak: 1009 hPa
Oblaci: Oblačno
Vidljivost: 10 km
Cloud details: Oblačno 1067 m
2024/04/25 08:15 LHPP 250815Z AUTO 05006KT 350V100 9999 OVC035 10/03 Q1009
LHUD - Szeged, Hungary
Ažurirano: 04/07/2019 01:45
NOT Current
Vedro
Vedro
 Pravac vetra S
Vetar: S 7 km/h
Temperatura: 18°C
Tačka rose: 13°C
Vlažnost: 73%
Pritisak: 1019 hPa
Pregled: Vedro
Vidljivost: greater than 10 km
2019/07/03 23:45 LHUD 032345Z 35004KT CAVOK 18/13 Q1019
LRTR - Timisoara, Romania
Ažurirano: 25/04/2024 10:30
Partly Cloudy
Partly Cloudy
 Pravac vetra S
Vetar: S 7 km/h
Temperatura: 10°C
Osećaj hladnoće: 9°C
Tačka rose: 5°C
Vlažnost: 71%
Pritisak: 1009 hPa
Oblaci: Partly Cloudy
Vidljivost: 10 km
Cloud details: Partly Cloudy 610 m
2024/04/25 08:30 LRTR 250830Z 35004KT 300V040 9999 SCT020 10/05 Q1009 NOSIG
 
LRCV - Craiova, Romania
Ažurirano: 25/04/2024 10:30
Slaba kiša, Oblačno
Slaba kiša, Oblačno
 Pravac vetra SZ
Vetar: SZ 7 km/h
Temperatura: 10°C
Osećaj hladnoće: 9°C
Tačka rose: 10°C
Vlažnost: 100%
Pritisak: 1005 hPa
Pregled: Light Rain
Oblaci: Oblačno
Vidljivost: 10 km
Cloud details: Few Clouds 305 m
Oblačno 1372 m
2024/04/25 08:30 LRCV 250830Z 32004KT 9999 -RA FEW010 OVC045 10/10 Q1005 RERA
LBSF - Sofia, Bulgaria
Ažurirano: 25/04/2024 10:30
Slaba kiša, Oblačno
Slaba kiša, Oblačno
 Pravac vetra Z
Vetar: Z 13 km/h
Temperatura: 10°C
Osećaj hladnoće: 8°C
Tačka rose: 6°C
Vlažnost: 76%
Pritisak: 1006 hPa
Pregled: Light Rain
Oblaci: Oblačno
Vidljivost: 10 km
Cloud details: Mostly Cloudy 1646 m
Oblačno 2164 m
2024/04/25 08:30 LBSF 250830Z 28007KT 250V320 9999 -RA BKN054 OVC071 10/06 Q1006 TEMPO 3000 SHRA SCT033TCU
LWSK - Skoplje, Makedonija
Ažurirano: 25/04/2024 10:20
Oblačno
Oblačno
 Pravac vetra varies
Vetar: varies 2 km/h
Temperatura: 13°C
Tačka rose: 9°C
Vlažnost: 77%
Pritisak: 1006 hPa
Oblaci: Oblačno
Vidljivost: 10 km
Cloud details: Few Clouds 945 m
Mostly Cloudy 1463 m
Oblačno 2743 m
2024/04/25 08:20 LWSK 250820Z VRB01KT 9999 FEW031 BKN048 OVC090 13/09 Q1006 NOSIG
 
LYPG - Podgorica, Crna Gora
Ažurirano: 25/04/2024 10:30
Partly Cloudy
Partly Cloudy
 Pravac vetra calm
Vetar: Tišina
Temperatura: 13°C
Tačka rose: 7°C
Vlažnost: 67%
Pritisak: 1007 hPa
Oblaci: Partly Cloudy
Vidljivost: 10 km
Cloud details: Partly Cloudy 823 m
2024/04/25 08:30 LYPG 250830Z 00000KT 9999 SCT027 13/07 Q1007 NOSIG
LQSA - Sarajevo, Bosna i Hercegovina
Ažurirano: 25/04/2024 10:30
Mostly Cloudy
Mostly Cloudy
 Pravac vetra varies
Vetar: varies 2 km/h
Temperatura: 4°C
Tačka rose: 4°C
Vlažnost: 100%
Pritisak: 1008 hPa
Oblaci: Mostly Cloudy
Vidljivost: 10 km
Cloud details: Few Clouds 671 m
Mostly Cloudy 1067 m
2024/04/25 08:30 LQSA 250830Z VRB01KT 9999 FEW022 BKN035 04/04 Q1008 NOSIG
LDOS - Osijek, Hrvatksa
Ažurirano: 25/04/2024 10:30
Partly Cloudy
Partly Cloudy
 Pravac vetra SSI
Vetar: SSI 13 km/h
Temperatura: 11°C
Tačka rose: 3°C
Vlažnost: 58%
Pritisak: 1009 hPa
Oblaci: Partly Cloudy
Vidljivost: 10 km
Cloud details: Partly Cloudy 823 m
2024/04/25 08:30 LDOS 250830Z 02007KT 350V060 9999 SCT027 11/03 Q1009